Hilo, Hawaii
Current Conditions -  °F | °C
As of 2:53 PM on Tuesday 27 Jan 2015 (Local Time) from PHTO Reporting Station
Overcast Overcast  
Wind Chill: 25°   Ceiling: 5000
Heat Index: 26°   Visibility: 10mi
Dew Point: 17°   Wind: 9mph
Humidity: 60%   Direction: 90°E
Pressure: 29.91"   Gusts: NA
Location:  19.72°N, 155.08°W
Report Text: PHTO 280053Z 09008KT 10SM OVC050 25/17 A2991 RMK AO2 SLP128 T02500167
Loading
Personal Weather Stations






























Interactive Weather Map New forecast layout! Learn more

10-Day Weather Forecast

Advertisements
Track Severe Weather on mobile